Time;durP1;ratioP1;P1;durP2;ratioP2;P2;SDS_P1;SDS_P2;PMS_P1;PMS_P2;Temp;Humidity;BMP_temperature;BMP_pressure;BME280_temperature;BME280_humidity;BME280_pressure;Samples;Min_cycle;Max_cycle;Signal;HPM_P1;HPM_P2
2021/04/15 00:01:03;;;;;;;3.98;2.10;;;;;;;3.12;85.46;99189.24;1752521;81;21177;-75
2021/04/15 00:03:32;;;;;;;4.75;2.45;;;;;;;3.09;85.86;99191.38;1738156;81;21634;-76
2021/04/15 00:06:15;;;;;;;4.47;2.45;;;;;;;3.10;85.68;99185.80;1740045;81;21290;-78
2021/04/15 00:08:44;;;;;;;4.17;2.40;;;;;;;3.09;85.69;99184.95;1738882;81;21158;-77
2021/04/15 00:11:15;;;;;;;4.90;2.42;;;;;;;3.08;85.75;99180.66;1741175;80;21648;-77
2021/04/15 00:13:48;;;;;;;4.78;2.30;;;;;;;3.12;85.84;99179.84;1747612;82;21202;-76
2021/04/15 00:16:17;;;;;;;6.53;2.72;;;;;;;3.15;85.84;99175.15;1776493;79;21165;-76
2021/04/15 00:18:45;;;;;;;4.30;2.60;;;;;;;3.14;85.78;99179.44;1747402;81;21182;-77
2021/04/15 00:21:16;;;;;;;4.12;2.40;;;;;;;3.10;85.56;99182.80;1779395;79;21630;-77
2021/04/15 00:23:44;;;;;;;3.87;2.20;;;;;;;3.14;85.24;99181.12;1747462;80;21621;-75
2021/04/15 00:26:15;;;;;;;4.95;2.62;;;;;;;3.14;85.23;99187.55;1776476;79;21162;-78
2021/04/15 00:28:42;;;;;;;5.92;2.27;;;;;;;3.01;85.77;99176.34;1747950;82;21665;-76
2021/04/15 00:31:10;;;;;;;3.87;2.15;;;;;;;3.05;85.30;99173.38;1769834;79;21197;-76
2021/04/15 00:33:38;;;;;;;4.92;2.47;;;;;;;3.07;85.11;99185.80;1747485;82;21146;-77
2021/04/15 00:36:07;;;;;;;4.03;2.40;;;;;;;3.01;85.67;99180.20;1776494;79;21606;-77
2021/04/15 00:38:35;;;;;;;6.65;2.55;;;;;;;3.04;85.53;99185.77;1747444;82;21614;-78
2021/04/15 00:41:06;;;;;;;3.42;2.02;;;;;;;3.06;85.53;99181.06;1776984;79;21169;-78
2021/04/15 00:43:38;;;;;;;4.12;2.25;;;;;;;3.09;85.17;99180.25;1747582;80;21177;-75
2021/04/15 00:46:58;;;;;;;4.00;2.42;;;;;;;3.05;84.68;99181.94;1776444;79;21696;-77
2021/04/15 00:49:38;;;;;;;4.10;2.40;;;;;;;3.05;84.66;99174.66;1747488;81;21209;-76
2021/04/15 00:52:11;;;;;;;6.47;2.55;;;;;;;3.08;84.30;99177.23;1776489;79;21137;-76
2021/04/15 00:54:42;;;;;;;;;;;;;;;3.06;84.18;99170.79;1779158;79;21173;-79
2021/04/15 00:57:21;;;;;;;5.35;2.52;;;;;;;3.03;84.04;99173.79;1776326;79;20172;-78
2021/04/15 00:59:49;;;;;;;3.92;1.98;;;;;;;3.05;83.59;99175.94;1747220;82;21622;-78
2021/04/15 01:02:21;;;;;;;6.03;2.72;;;;;;;3.01;84.09;99184.48;1776339;79;21178;-79
2021/04/15 01:04:58;;;;;;;4.15;2.47;;;;;;;2.99;84.33;99182.75;1773915;79;21165;-78
2021/04/15 01:07:26;;;;;;;4.05;2.27;;;;;;;2.98;84.48;99169.89;1774906;79;21110;-78
2021/04/15 01:09:54;;;;;;;4.58;2.60;;;;;;;2.95;84.75;99181.01;1748267;81;21150;-78
2021/04/15 01:12:46;;;;;;;5.97;2.95;;;;;;;2.98;84.57;99181.05;1775882;79;21185;-78
2021/04/15 01:15:28;;;;;;;5.45;2.77;;;;;;;3.01;84.60;99179.34;1756917;79;21383;-77
2021/04/15 01:18:20;;;;;;;;;;;;;;;3.04;84.79;99180.63;1774728;79;21170;-79
2021/04/15 01:21:16;;;;;;;4.95;2.65;;;;;;;3.02;85.03;99175.91;1773198;79;20318;-78
2021/04/15 01:24:13;;;;;;;4.72;2.60;;;;;;;3.06;84.82;99177.22;1849999;76;22927;-77
2021/04/15 01:27:09;;;;;;;5.55;2.70;;;;;;;3.00;84.81;99177.17;1810770;78;21180;-77
2021/04/15 01:29:48;;;;;;;4.95;2.77;;;;;;;3.02;84.06;99178.48;1776265;77;21167;-76
2021/04/15 01:32:38;;;;;;;4.05;2.52;;;;;;;3.01;84.14;99180.63;1794058;79;21164;-77
2021/04/15 01:35:15;;;;;;;7.03;3.02;;;;;;;2.99;83.69;99178.89;1802945;78;21175;-77
2021/04/15 01:37:53;;;;;;;5.55;3.00;;;;;;;2.98;84.01;99177.19;1797928;78;21144;-76
2021/04/15 01:40:38;;;;;;;5.45;3.12;;;;;;;2.96;84.59;99181.45;1794977;78;21162;-77
2021/04/15 01:43:30;;;;;;;5.45;3.25;;;;;;;3.06;84.16;99183.64;1775249;79;21185;-77
2021/04/15 01:46:00;;;;;;;5.30;3.33;;;;;;;2.96;84.26;99181.45;1768942;79;21611;-77
2021/04/15 01:48:48;;;;;;;4.85;3.05;;;;;;;3.04;84.36;99178.91;1775819;78;21152;-77
2021/04/15 01:51:29;;;;;;;6.33;3.08;;;;;;;3.02;83.76;99182.33;1789128;78;21159;-76
2021/04/15 01:54:08;;;;;;;5.97;3.10;;;;;;;3.08;83.75;99179.80;1805174;79;21581;-77
2021/04/15 01:56:43;;;;;;;4.17;2.62;;;;;;;3.01;83.59;99180.20;1782193;77;21151;-79
2021/04/15 01:59:25;;;;;;;4.65;2.72;;;;;;;3.05;83.29;99184.50;1789295;77;21549;-77
2021/04/15 02:01:57;;;;;;;7.00;3.05;;;;;;;3.08;82.73;99190.08;1781796;77;21659;-76
2021/04/15 02:04:29;;;;;;;7.12;2.87;;;;;;;3.03;82.87;99184.06;1791831;78;21132;-76
2021/04/15 02:07:15;;;;;;;4.70;2.70;;;;;;;3.06;82.76;99184.06;1846940;76;22873;-77
2021/04/15 02:09:46;;;;;;;6.15;2.62;;;;;;;3.00;82.81;99188.73;1769476;78;21136;-77
2021/04/15 02:12:26;;;;;;;5.10;2.83;;;;;;;3.05;82.80;99184.94;1769019;77;21168;-76
2021/04/15 02:15:23;;;;;;;6.47;2.95;;;;;;;3.04;83.17;99187.91;1780823;79;21132;-77
2021/04/15 02:17:59;;;;;;;4.80;2.95;;;;;;;3.01;82.89;99189.19;1767704;77;21168;-77
2021/04/15 02:20:29;;;;;;;5.45;3.10;;;;;;;3.02;82.75;99192.61;1801911;78;21627;-80
2021/04/15 02:23:07;;;;;;;5.85;3.33;;;;;;;3.07;82.68;99188.38;1784674;78;21730;-77
2021/04/15 02:25:49;;;;;;;5.25;3.02;;;;;;;2.96;82.80;99186.99;1814852;77;21145;-77
2021/04/15 02:28:37;;;;;;;8.98;3.33;;;;;;;2.95;82.82;99192.56;1783161;77;21141;-78
2021/04/15 02:31:19;;;;;;;5.92;2.87;;;;;;;2.97;82.26;99192.15;1813501;77;21151;-77
2021/04/15 02:34:06;;;;;;;5.80;2.77;;;;;;;2.95;82.36;99198.98;1817388;78;21152;-77
2021/04/15 02:36:42;;;;;;;4.87;3.00;;;;;;;2.96;82.22;99194.30;1778501;77;21140;-77
2021/04/15 02:39:17;;;;;;;6.17;2.98;;;;;;;2.92;82.58;99195.09;1797303;78;21161;-78
2021/04/15 02:41:48;;;;;;;5.17;2.95;;;;;;;2.89;82.96;99191.23;1775738;78;21600;-77
2021/04/15 02:44:30;;;;;;;6.15;3.85;;;;;;;2.93;82.94;99192.98;1777443;79;21191;-77
2021/04/15 02:47:05;;;;;;;5.53;3.47;;;;;;;2.98;82.84;99201.59;1781653;77;21113;-77
2021/04/15 02:49:34;;;;;;;6.55;3.42;;;;;;;2.97;82.82;99201.57;1786208;79;22170;-76
2021/04/15 02:52:09;;;;;;;6.03;3.33;;;;;;;2.97;82.62;99192.15;1773813;77;21153;-77
2021/04/15 02:54:41;;;;;;;6.40;3.65;;;;;;;2.98;82.62;99199.42;1797367;77;21151;-77
2021/04/15 02:57:28;;;;;;;7.12;3.50;;;;;;;2.97;82.42;99199.86;1777069;77;21950;-77
2021/04/15 03:00:04;;;;;;;6.15;3.45;;;;;;;2.91;82.53;99204.09;1804809;78;21657;-77
2021/04/15 03:02:36;;;;;;;5.55;3.00;;;;;;;2.89;82.74;99204.08;1779077;79;21136;-77
2021/04/15 03:05:18;;;;;;;7.50;3.30;;;;;;;2.91;82.38;99204.95;1820644;78;21307;-77
2021/04/15 03:07:47;;;;;;;8.73;3.15;;;;;;;2.85;83.07;99202.77;1830887;78;21108;-77
2021/04/15 03:10:19;;;;;;;5.78;2.87;;;;;;;2.89;82.94;99197.66;1805659;78;21139;-77
2021/04/15 03:12:55;;;;;;;4.92;3.12;;;;;;;2.93;82.76;99210.10;1810069;76;21115;-77
2021/04/15 03:15:26;;;;;;;8.13;3.42;;;;;;;2.93;82.83;99203.25;1821138;78;21934;-77
2021/04/15 03:17:58;;;;;;;5.80;3.35;;;;;;;2.96;82.62;99207.14;1827357;78;21654;-77
2021/04/15 03:20:40;;;;;;;5.22;2.80;;;;;;;2.96;82.47;99204.97;1794103;78;21143;-77
2021/04/15 03:23:24;;;;;;;5.15;3.02;;;;;;;2.92;82.28;99209.66;1806677;78;21286;-77
2021/04/15 03:25:55;;;;;;;6.00;3.50;;;;;;;2.95;82.03;99206.69;1803938;78;21174;-79
2021/04/15 03:28:31;;;;;;;9.13;3.37;;;;;;;2.88;82.11;99207.91;1812583;78;22315;-78
2021/04/15 03:31:09;;;;;;;6.60;3.35;;;;;;;2.84;82.75;99213.88;1814701;76;21152;-76
2021/04/15 03:33:45;;;;;;;7.37;3.08;;;;;;;2.78;82.65;99212.11;1816375;78;21148;-77
2021/04/15 03:36:36;;;;;;;5.15;3.02;;;;;;;2.75;82.85;99211.67;1828087;76;21552;-77
2021/04/15 03:39:09;;;;;;;8.50;3.45;;;;;;;2.82;82.48;99216.42;1805095;76;21549;-76
2021/04/15 03:41:44;;;;;;;6.17;3.58;;;;;;;2.80;82.71;99215.55;1804349;78;21162;-76
2021/04/15 03:44:20;;;;;;;7.90;3.37;;;;;;;2.83;82.79;99221.16;1803967;78;21305;-77
2021/04/15 03:46:59;;;;;;;8.10;3.37;;;;;;;2.82;82.84;99216.86;1803884;78;21434;-76
2021/04/15 03:49:34;;;;;;;6.72;3.30;;;;;;;2.87;82.85;99220.33;1803955;78;21642;-78
2021/04/15 03:52:07;;;;;;;8.13;4.35;;;;;;;2.84;82.81;99222.42;1804025;78;22198;-76
2021/04/15 03:54:40;;;;;;;5.30;3.47;;;;;;;2.89;82.37;99218.20;1804158;78;21124;-76
2021/04/15 03:57:12;;;;;;;7.25;3.62;;;;;;;2.81;82.41;99222.86;1825602;78;22365;-77
2021/04/15 04:00:14;;;;;;;5.83;3.20;;;;;;;2.83;82.24;99219.88;1804055;76;21124;-78
2021/04/15 04:02:47;;;;;;;12.50;3.87;;;;;;;2.76;82.66;99220.23;1809618;78;21150;-77
2021/04/15 04:05:27;;;;;;;6.78;3.37;;;;;;;2.81;81.78;99223.70;1836871;78;21170;-77
2021/04/15 04:08:02;;;;;;;8.35;4.05;;;;;;;2.77;82.28;99224.53;1774281;77;21176;-76
2021/04/15 04:10:40;;;;;;;7.85;3.70;;;;;;;2.78;82.34;99224.95;1773936;78;21662;-79
2021/04/15 04:13:36;;;;;;;5.83;2.77;;;;;;;2.82;82.21;99227.12;1772887;79;21478;-77
2021/04/15 04:16:24;;;;;;;6.72;3.47;;;;;;;2.79;82.35;99222.84;1777067;78;21163;-76
2021/04/15 04:19:06;;;;;;;7.40;3.25;;;;;;;2.84;82.25;99228.84;1768056;79;21155;-77
2021/04/15 04:22:00;;;;;;;6.60;3.62;;;;;;;2.87;82.32;99229.32;1790383;77;21165;-77
2021/04/15 04:25:19;;;;;;;7.75;4.03;;;;;;;2.91;82.42;99234.48;1802261;78;21133;-76
2021/04/15 04:28:00;;;;;;;9.05;3.47;;;;;;;2.92;81.96;99229.77;1761376;78;21724;-77
2021/04/15 04:30:50;;;;;;;8.65;3.80;;;;;;;2.97;81.70;99233.24;1794843;78;21640;-77
2021/04/15 04:33:22;;;;;;;8.35;3.60;;;;;;;2.94;81.70;99238.34;1803089;77;21105;-77
2021/04/15 04:35:51;;;;;;;7.92;3.50;;;;;;;2.94;81.43;99235.77;1792928;77;21128;-76
2021/04/15 04:38:21;;;;;;;8.50;3.37;;;;;;;2.97;81.48;99240.95;1809503;78;21132;-76
2021/04/15 04:40:56;;;;;;;9.65;3.90;;;;;;;2.97;81.49;99238.37;1792877;79;21120;-76
2021/04/15 04:43:29;;;;;;;8.08;4.17;;;;;;;2.99;81.67;99245.67;1775815;77;21135;-76
2021/04/15 04:46:08;;;;;;;5.47;3.47;;;;;;;3.03;81.57;99238.86;1777282;79;21133;-77
2021/04/15 04:48:40;;;;;;;7.97;4.00;;;;;;;3.09;81.67;99236.77;1814389;78;21136;-77
2021/04/15 04:51:12;;;;;;;6.25;3.35;;;;;;;3.13;81.64;99238.50;1818962;78;21119;-77
2021/04/15 04:53:42;;;;;;;11.18;3.80;;;;;;;3.21;81.77;99243.27;1777642;77;21136;-77
2021/04/15 04:56:33;;;;;;;9.78;4.17;;;;;;;3.22;81.55;99246.25;1806643;78;21146;-77
2021/04/15 04:59:17;;;;;;;15.68;5.47;;;;;;;3.30;81.51;99252.33;1785297;79;21179;-77
2021/04/15 05:01:44;;;;;;;8.93;4.47;;;;;;;3.31;80.64;99252.75;1790265;78;21482;-79
2021/04/15 05:04:12;;;;;;;10.60;3.83;;;;;;;3.36;80.54;99255.34;1804823;78;21152;-77
2021/04/15 05:06:43;;;;;;;7.42;3.20;;;;;;;3.41;79.92;99269.09;1767850;79;21747;-76
2021/04/15 05:09:25;;;;;;;9.50;3.60;;;;;;;3.46;79.87;99269.12;1801970;78;21148;-76
2021/04/15 05:11:54;;;;;;;7.03;3.42;;;;;;;3.47;79.77;99268.28;1791561;78;21140;-77
2021/04/15 05:14:26;;;;;;;6.33;3.80;;;;;;;3.52;79.28;99271.72;1779532;79;22272;-79
2021/04/15 05:17:35;;;;;;;5.97;3.37;;;;;;;3.50;79.78;99268.28;1777284;77;21168;-77
2021/04/15 05:20:07;;;;;;;5.83;2.90;;;;;;;3.57;79.68;99270.91;1767307;79;21652;-77
2021/04/15 05:22:55;;;;;;;8.35;2.62;;;;;;;3.59;79.32;99267.91;1748356;81;21140;-77
2021/04/15 05:25:28;;;;;;;9.18;3.00;;;;;;;3.67;79.31;99267.97;1767810;79;21240;-77
2021/04/15 05:27:57;;;;;;;5.95;3.02;;;;;;;3.77;79.22;99271.02;1762713;79;21152;-77
2021/04/15 05:30:44;;;;;;;6.20;3.47;;;;;;;3.81;79.32;99268.03;1736005;81;21890;-80
2021/04/15 05:33:20;;;;;;;7.42;3.17;;;;;;;3.90;78.79;99269.37;1757346;79;21172;-79
2021/04/15 05:36:23;;;;;;;7.80;3.60;;;;;;;3.95;78.32;99265.53;1736412;81;21125;-77
2021/04/15 05:38:55;;;;;;;5.75;3.12;;;;;;;4.02;78.20;99262.55;1731157;81;21145;-78
2021/04/15 05:41:31;;;;;;;5.72;3.47;;;;;;;3.99;77.21;99259.11;1736421;81;21408;-77
2021/04/15 05:44:12;;;;;;;7.03;3.52;;;;;;;3.98;76.85;99266.41;1747450;79;21169;-78
2021/04/15 05:46:47;;;;;;;11.88;3.33;;;;;;;4.09;77.51;99266.44;1744408;79;21169;-78
2021/04/15 05:49:25;;;;;;;7.40;3.55;;;;;;;4.13;77.32;99263.02;1734877;81;21615;-79
2021/04/15 05:52:25;;;;;;;15.93;3.37;;;;;;;4.19;76.74;99264.33;1744049;79;21152;-76
2021/04/15 05:55:12;;;;;;;9.00;3.25;;;;;;;4.21;77.01;99268.63;1744379;79;21144;-78
2021/04/15 05:57:43;;;;;;;7.37;2.92;;;;;;;4.31;76.21;99265.23;1757664;79;21274;-77
2021/04/15 06:00:36;;;;;;;5.60;2.70;;;;;;;4.41;75.07;99275.13;1762882;79;21109;-77
2021/04/15 06:03:45;;;;;;;5.37;3.17;;;;;;;4.36;74.51;99275.97;1757572;79;21164;-77
2021/04/15 06:06:21;;;;;;;6.83;3.58;;;;;;;4.45;75.16;99278.98;1757678;79;22612;-77
2021/04/15 06:08:50;;;;;;;5.22;2.90;;;;;;;4.54;74.33;99278.17;1704115;82;21185;-76
2021/04/15 06:11:41;;;;;;;5.75;2.75;;;;;;;4.51;74.39;99284.59;1760757;79;21250;-76
2021/04/15 06:14:22;;;;;;;8.80;2.90;;;;;;;4.43;74.40;99279.41;1744565;79;22152;-78
2021/04/15 06:17:04;;;;;;;6.60;3.25;;;;;;;4.45;73.50;99284.14;1725808;79;21153;-77
2021/04/15 06:19:33;;;;;;;6.30;2.47;;;;;;;4.53;74.33;99275.15;1754979;79;21158;-79
2021/04/15 06:22:21;;;;;;;7.92;3.00;;;;;;;4.55;74.88;99276.02;1734189;79;21144;-78
2021/04/15 06:24:54;;;;;;;5.83;3.40;;;;;;;4.58;74.57;99273.02;1755762;79;21159;-77
2021/04/15 06:27:22;;;;;;;6.60;3.40;;;;;;;4.60;74.49;99278.18;1751751;79;21202;-79
2021/04/15 06:30:08;;;;;;;7.33;2.58;;;;;;;4.68;74.82;99273.05;1750027;79;21175;-77
2021/04/15 06:33:09;;;;;;;8.15;3.10;;;;;;;4.62;73.50;99263.59;1762535;79;22199;-77
2021/04/15 06:35:37;;;;;;;6.40;3.35;;;;;;;4.78;74.29;99267.90;1756454;79;21177;-77
2021/04/15 06:38:10;;;;;;;7.05;3.05;;;;;;;4.92;73.51;99270.48;1755793;79;21141;-81
2021/04/15 06:41:26;;;;;;;8.58;3.52;;;;;;;4.91;72.59;99273.91;1752832;78;21168;-76
2021/04/15 06:44:29;;;;;;;4.60;2.77;;;;;;;4.97;72.22;99262.34;1622106;84;21661;-78
2021/04/15 06:47:31;;;;;;;7.60;3.05;;;;;;;5.14;71.69;99271.34;1676451;83;21189;-77
2021/04/15 06:50:21;;;;;;;9.15;3.45;;;;;;;5.22;71.88;99272.63;1733266;81;21164;-78
2021/04/15 06:53:11;;;;;;;6.12;3.15;;;;;;;5.30;70.62;99265.75;1725675;81;21184;-78
2021/04/15 06:56:11;;;;;;;8.20;3.08;;;;;;;5.40;71.17;99274.33;1736988;81;21196;-75
2021/04/15 06:58:54;;;;;;;5.22;2.85;;;;;;;5.50;71.15;99279.91;1738171;81;21174;-78
2021/04/15 07:01:50;;;;;;;4.90;2.67;;;;;;;5.50;70.69;99273.89;1734128;81;21178;-78
2021/04/15 07:04:26;;;;;;;13.28;3.12;;;;;;;5.50;70.00;99277.77;1732550;81;21189;-76
2021/04/15 07:07:35;;;;;;;4.67;2.67;;;;;;;5.53;70.20;99282.90;1771568;78;23088;-77
2021/04/15 07:10:24;;;;;;;7.10;2.90;;;;;;;5.48;70.04;99284.20;1773087;79;21156;-78
2021/04/15 07:13:07;;;;;;;6.05;2.87;;;;;;;5.55;69.23;99285.05;1774591;79;21477;-79
2021/04/15 07:15:59;;;;;;;7.63;3.20;;;;;;;5.67;70.65;99287.63;1759979;79;21192;-79
2021/04/15 07:19:09;;;;;;;7.65;2.98;;;;;;;5.67;69.64;99295.36;1721095;80;22624;-80
2021/04/15 07:21:53;;;;;;;6.50;3.15;;;;;;;5.62;68.84;99291.92;1768620;79;21192;-79
2021/04/15 07:25:00;;;;;;;10.15;3.42;;;;;;;5.69;68.85;99292.75;1774709;79;21126;-77
2021/04/15 07:28:22;;;;;;;5.50;2.80;;;;;;;5.80;69.46;99297.91;1743035;79;21168;-77
2021/04/15 07:31:24;;;;;;;7.17;3.27;;;;;;;5.89;68.85;99300.03;1762183;80;21150;-84
2021/04/15 07:34:25;;;;;;;8.40;3.00;;;;;;;5.86;69.06;99301.76;1768850;79;21165;-79
2021/04/15 07:37:28;;;;;;;4.65;2.60;;;;;;;6.06;69.03;99309.03;1769671;79;21162;-80
2021/04/15 07:40:06;;;;;;;4.87;3.02;;;;;;;5.94;67.10;99305.17;1772577;79;21170;-79
2021/04/15 07:42:58;;;;;;;5.67;3.10;;;;;;;6.06;67.71;99308.18;1735141;80;21184;-79
2021/04/15 07:46:09;;;;;;;7.20;2.75;;;;;;;5.99;68.30;99308.64;1758053;80;21169;-78
2021/04/15 07:48:57;;;;;;;7.80;3.02;;;;;;;6.17;68.19;99315.02;1776357;79;21142;-79
2021/04/15 07:51:48;;;;;;;4.62;2.60;;;;;;;6.34;68.26;99307.19;1760800;79;21185;-80
2021/04/15 07:54:35;;;;;;;8.55;3.20;;;;;;;6.38;67.18;99318.38;1749817;79;21154;-78
2021/04/15 07:57:36;;;;;;;7.12;3.20;;;;;;;6.31;65.95;99312.39;1774877;79;21178;-83
2021/04/15 08:00:32;;;;;;;5.50;2.70;;;;;;;6.39;66.81;99313.64;1780649;79;21291;-83
2021/04/15 08:03:26;;;;;;;14.15;2.70;;;;;;;6.55;65.83;99317.02;1732027;81;21739;-81
2021/04/15 08:06:06;;;;;;;5.15;2.70;;;;;;;6.67;66.20;99314.36;1705754;82;21280;-83
2021/04/15 08:08:59;;;;;;;6.00;2.45;;;;;;;6.79;64.86;99309.55;1718768;82;21569;-82
2021/04/15 08:12:16;;;;;;;6.03;2.58;;;;;;;6.91;64.29;99303.44;1769899;80;21264;-82
2021/04/15 08:14:58;;;;;;;4.95;2.67;;;;;;;7.08;66.15;99307.19;1763816;80;21242;-83
2021/04/15 08:18:14;;;;;;;6.70;3.00;;;;;;;7.19;64.19;99306.67;1766253;79;21339;-81
2021/04/15 08:21:05;;;;;;;5.42;2.70;;;;;;;7.48;65.31;99299.09;1766670;79;21170;-81
2021/04/15 08:23:58;;;;;;;4.65;2.50;;;;;;;7.71;64.96;99302.31;1767817;79;21319;-80
2021/04/15 08:29:59;;;;;;;6.28;2.70;;;;;;;7.77;62.96;99301.40;1767547;80;21155;-80
2021/04/15 08:32:55;;;;;;;6.03;2.33;;;;;;;7.71;63.52;99304.91;1764884;80;21202;-88
2021/04/15 08:35:51;;;;;;;8.33;2.90;;;;;;;7.68;63.29;99295.89;1743245;81;21336;-84
2021/04/15 08:38:49;;;;;;;5.83;3.05;;;;;;;7.51;62.55;99305.55;1730597;80;21147;-82
2021/04/15 08:41:56;;;;;;;4.55;2.67;;;;;;;7.34;62.38;99275.52;1769772;80;21255;-81
2021/04/15 08:44:45;;;;;;;4.72;2.65;;;;;;;7.50;62.04;99305.10;1762215;80;21303;-81
2021/04/15 08:47:37;;;;;;;7.78;2.92;;;;;;;7.57;62.59;99301.16;1776919;80;21528;-81
2021/04/15 08:50:36;;;;;;;4.62;3.15;;;;;;;7.47;61.39;99305.15;1759125;80;21203;-82
2021/04/15 08:53:18;;;;;;;5.58;2.92;;;;;;;7.56;62.13;99296.02;1767675;80;21286;-81
2021/04/15 08:55:57;;;;;;;8.95;2.77;;;;;;;7.56;61.71;99303.34;1767003;80;21259;-81
2021/04/15 08:59:09;;;;;;;5.30;2.98;;;;;;;7.56;62.08;99299.45;1736980;80;21188;-80
2021/04/15 09:02:19;;;;;;;8.28;3.60;;;;;;;7.45;63.18;99299.13;1766580;80;21235;-83
2021/04/15 09:05:22;;;;;;;7.80;2.50;;;;;;;7.31;63.05;99291.05;1724451;82;21192;-87
2021/04/15 09:07:59;;;;;;;5.58;2.90;;;;;;;7.41;61.99;99302.63;1690376;83;21295;-83
2021/04/15 09:10:59;;;;;;;10.93;2.50;;;;;;;7.45;62.16;99300.42;1674258;85;21682;-82
2021/04/15 09:13:37;;;;;;;5.37;2.70;;;;;;;7.44;62.04;99299.98;1668306;85;21295;-82
2021/04/15 09:16:39;;;;;;;8.23;2.75;;;;;;;7.62;62.32;99293.78;1687239;83;21278;-82
2021/04/15 09:19:42;;;;;;;4.00;2.35;;;;;;;7.76;61.93;99304.43;1692822;84;21352;-83
2021/04/15 09:22:58;;;;;;;5.20;3.12;;;;;;;7.62;60.08;99297.66;1724741;82;21258;-82
2021/04/15 09:25:37;;;;;;;5.55;2.70;;;;;;;7.90;60.97;99297.81;1725978;83;21301;-84
2021/04/15 09:28:22;;;;;;;7.30;2.75;;;;;;;8.08;61.64;99293.31;1694612;83;21195;-84
2021/04/15 09:31:02;;;;;;;5.37;2.40;;;;;;;8.13;60.25;99294.94;1722989;82;21125;-85
2021/04/15 09:34:01;;;;;;;7.12;2.30;;;;;;;7.81;59.76;99299.20;1735631;82;21779;-83
2021/04/15 09:37:19;;;;;;;4.58;2.10;;;;;;;7.96;58.95;99297.74;1722250;82;21164;-83
2021/04/15 09:40:04;;;;;;;4.03;2.25;;;;;;;8.04;59.40;99297.66;1734098;82;21242;-82
2021/04/15 09:42:54;;;;;;;4.45;2.10;;;;;;;7.93;60.25;99293.88;1696660;83;21309;-83
2021/04/15 09:45:50;;;;;;;5.58;2.62;;;;;;;7.96;60.67;99295.60;1692560;83;21283;-80
2021/04/15 09:48:46;;;;;;;5.53;2.52;;;;;;;7.77;60.06;99290.60;1703051;83;21120;-84
2021/04/15 09:51:55;;;;;;;4.35;2.12;;;;;;;7.75;60.68;99287.62;1688828;85;21317;-83
2021/04/15 09:54:47;;;;;;;4.78;2.50;;;;;;;7.62;59.76;99286.02;1678306;85;21303;-80
2021/04/15 09:58:05;;;;;;;7.45;2.40;;;;;;;7.58;60.11;99286.52;1707189;83;21283;-81
2021/04/15 10:00:41;;;;;;;4.08;2.27;;;;;;;7.53;59.48;99283.09;1697449;83;21303;-82
2021/04/15 10:03:52;;;;;;;11.30;2.47;;;;;;;7.52;60.19;99289.12;1693937;83;21222;-80
2021/04/15 10:06:30;;;;;;;4.45;2.27;;;;;;;7.49;61.11;99287.44;1688222;83;21193;-81
2021/04/15 10:09:18;;;;;;;5.78;2.60;;;;;;;7.53;61.08;99285.69;1688098;84;21310;-81
2021/04/15 10:12:12;;;;;;;5.83;2.33;;;;;;;7.58;60.91;99287.80;1669502;84;21685;-80
2021/04/15 10:15:34;;;;;;;4.30;2.27;;;;;;;7.69;60.02;99285.09;1675929;84;21193;-81
2021/04/15 10:18:34;;;;;;;6.97;2.55;;;;;;;7.59;60.63;99280.45;1700784;83;21168;-80
2021/04/15 10:21:26;;;;;;;4.83;2.35;;;;;;;7.65;60.50;99282.13;1669480;84;21188;-81
2021/04/15 10:24:19;;;;;;;4.42;2.17;;;;;;;7.70;60.27;99275.15;1684099;83;21183;-83
2021/04/15 10:27:32;;;;;;;6.37;2.45;;;;;;;7.70;60.34;99277.73;1684388;84;21296;-83
2021/04/15 10:30:23;;;;;;;5.13;2.57;;;;;;;7.67;60.10;99276.05;1667899;85;21121;-83
2021/04/15 10:33:17;;;;;;;4.15;2.12;;;;;;;7.68;59.18;99276.48;1669775;84;21229;-81
2021/04/15 10:36:38;;;;;;;13.85;2.60;;;;;;;7.80;60.22;99275.91;1671437;84;21184;-84
2021/04/15 10:39:42;;;;;;;5.00;2.58;;;;;;;7.74;58.98;99273.83;1629023;87;21229;-80
2021/04/15 10:43:05;;;;;;;8.78;2.40;;;;;;;7.73;60.08;99272.09;1684921;84;21190;-80
2021/04/15 10:46:12;;;;;;;5.00;2.50;;;;;;;7.74;60.28;99271.24;1690784;84;21543;-80
2021/04/15 10:49:37;;;;;;;6.72;2.70;;;;;;;7.81;60.26;99267.28;1684927;84;21199;-80
2021/04/15 10:52:54;;;;;;;4.97;2.60;;;;;;;7.80;60.03;99264.27;1699317;84;21209;-74
2021/04/15 10:55:36;;;;;;;4.58;2.37;;;;;;;7.76;60.37;99275.96;1679724;84;21212;-70
2021/04/15 10:58:30;;;;;;;5.10;3.08;;;;;;;7.81;60.41;99268.14;1701362;83;21652;-71
2021/04/15 11:01:20;;;;;;;11.30;3.00;;;;;;;7.75;60.17;99274.23;1684153;81;21177;-69
2021/04/15 11:03:48;;;;;;;7.42;2.70;;;;;;;7.87;60.90;99267.22;1703645;82;21185;-70
2021/04/15 11:06:59;;;;;;;5.28;2.40;;;;;;;7.89;60.72;99271.94;1729069;81;21189;-70
2021/04/15 11:09:39;;;;;;;9.43;2.80;;;;;;;7.70;60.29;99272.15;1731541;81;21113;-71
2021/04/15 11:12:18;;;;;;;10.80;3.20;;;;;;;7.84;60.97;99277.59;1724181;81;21598;-71
2021/04/15 11:14:51;;;;;;;5.15;2.75;;;;;;;7.79;61.24;99266.00;1725584;81;21152;-71
2021/04/15 11:17:33;;;;;;;7.80;2.80;;;;;;;7.86;60.67;99270.66;1733067;81;21168;-69
2021/04/15 11:20:41;;;;;;;10.68;3.00;;;;;;;7.82;60.85;99263.39;1732881;81;21168;-70
2021/04/15 11:23:17;;;;;;;5.62;2.60;;;;;;;7.87;59.70;99267.22;1704738;83;21189;-69
2021/04/15 11:25:49;;;;;;;4.87;2.70;;;;;;;7.93;60.32;99269.73;1706863;83;21172;-70
2021/04/15 11:28:28;;;;;;;6.67;3.27;;;;;;;7.91;59.89;99273.62;1702666;83;21188;-69
2021/04/15 11:31:14;;;;;;;5.58;2.92;;;;;;;8.02;60.56;99272.64;1710335;83;21141;-70
2021/04/15 11:33:49;;;;;;;9.78;2.80;;;;;;;7.91;61.21;99271.48;1707622;83;21110;-70
2021/04/15 11:36:30;;;;;;;7.33;3.00;;;;;;;7.97;60.87;99266.23;1709190;83;21106;-69
2021/04/15 11:39:09;;;;;;;5.22;2.90;;;;;;;8.03;61.10;99266.16;1670190;85;21176;-70
2021/04/15 11:42:04;;;;;;;5.83;2.77;;;;;;;8.16;60.75;99265.14;1655844;85;21177;-69
2021/04/15 11:44:44;;;;;;;8.75;3.22;;;;;;;8.08;59.95;99259.65;1645607;86;21190;-68
2021/04/15 11:47:29;;;;;;;7.92;2.95;;;;;;;8.01;60.54;99263.17;1694283;84;21166;-69
2021/04/15 11:50:21;;;;;;;6.87;3.40;;;;;;;8.15;60.24;99263.85;1691446;84;21576;-69
2021/04/15 11:52:52;;;;;;;5.75;3.25;;;;;;;8.06;59.71;99258.36;1694443;84;21193;-70
2021/04/15 11:55:30;;;;;;;8.33;3.95;;;;;;;8.14;60.91;99263.00;1669586;85;21189;-69
2021/04/15 11:58:05;;;;;;;12.00;3.55;;;;;;;8.31;61.06;99256.74;1691435;84;21102;-68
2021/04/15 12:00:44;;;;;;;10.28;3.75;;;;;;;8.38;61.00;99262.27;1689876;84;21153;-69
2021/04/15 12:03:17;;;;;;;8.90;4.60;;;;;;;8.63;60.92;99256.77;1691507;84;21142;-69
2021/04/15 12:05:47;;;;;;;10.23;3.37;;;;;;;8.74;59.42;99253.59;1678771;85;21359;-69
2021/04/15 12:08:33;;;;;;;8.33;3.60;;;;;;;8.56;59.30;99247.79;1692540;84;21731;-71
2021/04/15 12:11:28;;;;;;;10.50;3.10;;;;;;;8.71;59.24;99247.14;1685062;84;21170;-71
2021/04/15 12:14:01;;;;;;;6.00;2.98;;;;;;;8.67;58.71;99241.59;1658849;86;21134;-69
2021/04/15 12:16:58;;;;;;;6.95;2.92;;;;;;;8.75;59.33;99247.09;1657875;85;21153;-69
2021/04/15 12:20:01;;;;;;;6.92;3.40;;;;;;;8.95;59.60;99248.48;1713095;83;21165;-70
2021/04/15 12:23:01;;;;;;;10.38;3.60;;;;;;;8.89;59.21;99242.11;1700006;84;21286;-81
2021/04/15 12:25:47;;;;;;;8.53;3.37;;;;;;;8.96;58.30;99235.95;1684132;84;21304;-83
2021/04/15 12:28:33;;;;;;;;;;;;;;;9.08;58.40;99238.79;1701395;84;21117;-86
2021/04/15 12:31:29;;;;;;;5.47;3.33;;;;;;;8.76;58.11;99240.16;1698163;84;20181;-85
2021/04/15 12:34:22;;;;;;;6.87;3.37;;;;;;;8.72;58.29;99232.02;1702360;83;21259;-83
2021/04/15 12:37:23;;;;;;;6.53;2.80;;;;;;;8.79;58.87;99232.77;1696754;84;21278;-82
2021/04/15 12:40:07;;;;;;;5.22;3.10;;;;;;;8.87;58.75;99224.01;1682783;83;21294;-85
2021/04/15 12:42:38;;;;;;;6.12;3.33;;;;;;;9.18;57.59;99222.63;1726461;82;21265;-94
2021/04/15 12:47:52;;;;;;;7.62;2.70;;;;;;;9.62;56.87;99225.70;1708022;82;21289;-89
2021/04/15 12:50:20;;;;;;;6.45;3.00;;;;;;;9.62;56.53;99223.55;1703051;82;21113;-85
2021/04/15 12:52:50;;;;;;;10.10;3.10;;;;;;;9.75;55.87;99228.94;1656780;83;21194;-80
2021/04/15 12:55:22;;;;;;;13.58;3.95;;;;;;;9.71;55.16;99224.23;1616406;87;21176;-82
2021/04/15 12:57:50;;;;;;;7.33;3.12;;;;;;;9.67;56.53;99229.08;1667204;85;21229;-85
2021/04/15 13:00:37;;;;;;;7.37;2.90;;;;;;;9.58;55.70;99220.61;1640365;86;21236;-82
2021/04/15 13:03:31;;;;;;;8.90;3.90;;;;;;;9.47;55.93;99222.09;1657838;85;21130;-83
2021/04/15 13:06:09;;;;;;;6.30;3.22;;;;;;;9.30;55.95;99214.63;1709009;80;21284;-86
2021/04/15 13:08:42;;;;;;;7.08;3.35;;;;;;;9.34;57.04;99218.42;1756943;79;21253;-85
2021/04/15 13:11:21;;;;;;;20.57;4.37;;;;;;;9.51;56.78;99208.17;1764278;80;21247;-84